Time;durP1;ratioP1;P1;durP2;ratioP2;P2;SDS_P1;SDS_P2;PMS_P1;PMS_P2;Temp;Humidity;BMP_temperature;BMP_pressure;BME280_temperature;BME280_humidity;BME280_pressure;Samples;Min_cycle;Max_cycle;Signal;HPM_P1;HPM_P2
2024/04/07 00:02:06;199019.00;0.66;344.24;76473.00;0.25;132.94;;;;;18.30;1.00;;;;;;2272397;61;1087;-84
2024/04/07 00:04:32;307280.00;1.02;530.43;103419.00;0.34;179.47;;;;;18.30;1.00;;;;;;2272369;61;2284;-85
2024/04/07 00:07:00;261639.00;0.87;451.97;83119.00;0.28;144.42;;;;;18.30;1.00;;;;;;2272399;61;1256;-86
2024/04/07 00:09:26;206257.00;0.69;356.69;75755.00;0.25;131.70;;;;;18.30;1.00;;;;;;2272431;61;1144;-84
2024/04/07 00:11:54;238967.00;0.80;412.97;79214.00;0.26;137.68;;;;;18.10;1.00;;;;;;2272463;61;1118;-85
2024/04/07 00:14:21;369262.00;1.23;636.97;78710.00;0.26;136.81;;;;;18.10;1.00;;;;;;2272460;61;1096;-85
2024/04/07 00:16:48;280605.00;0.94;484.58;74778.00;0.25;130.02;;;;;18.00;1.00;;;;;;2272224;61;1998;-85
2024/04/07 00:19:14;176240.00;0.59;305.01;76006.00;0.25;132.14;;;;;18.10;1.00;;;;;;2272445;61;1062;-86
2024/04/07 00:21:41;273050.00;0.91;471.59;84826.00;0.28;147.37;;;;;18.00;1.00;;;;;;2272395;61;1072;-86
2024/04/07 00:24:07;261215.00;0.87;451.24;73812.00;0.25;128.35;;;;;18.00;1.00;;;;;;2272372;61;1039;-85
2024/04/07 00:26:34;212092.00;0.71;366.74;83717.00;0.28;145.46;;;;;18.00;1.00;;;;;;2272261;61;1354;-86
2024/04/07 00:29:00;229097.00;0.76;396.00;80853.00;0.27;140.51;;;;;17.90;1.00;;;;;;2272363;61;1134;-85
2024/04/07 00:31:28;373394.00;1.24;644.07;200387.00;0.67;346.59;;;;;17.90;1.00;;;;;;2272346;61;1066;-85
2024/04/07 00:33:54;187519.00;0.63;324.44;86826.00;0.29;150.83;;;;;17.90;1.00;;;;;;2272362;61;1122;-85
2024/04/07 00:36:21;439760.00;1.47;758.17;173170.00;0.58;299.73;;;;;18.10;1.00;;;;;;2272250;61;1931;-86
2024/04/07 00:38:47;337579.00;1.13;582.51;120881.00;0.40;209.60;;;;;18.00;1.00;;;;;;2272378;61;921;-86
2024/04/07 00:41:14;188184.00;0.63;325.58;89033.00;0.30;154.64;;;;;17.80;1.00;;;;;;2272256;61;1051;-87
2024/04/07 00:43:40;546788.00;1.82;942.42;132718.00;0.44;230.02;;;;;17.90;1.00;;;;;;2272307;61;1118;-85
2024/04/07 00:46:08;273372.00;0.91;472.14;79309.00;0.26;137.84;;;;;17.90;1.00;;;;;;2272272;61;1390;-87
2024/04/07 00:48:35;168153.00;0.56;291.09;80096.00;0.27;139.20;;;;;18.10;1.00;;;;;;2272304;61;1033;-85
2024/04/07 00:51:03;205052.00;0.68;354.62;81354.00;0.27;141.38;;;;;18.00;1.00;;;;;;2272264;61;1098;-86
2024/04/07 00:53:29;187534.00;0.63;324.46;85860.00;0.29;149.16;;;;;18.00;1.00;;;;;;2272334;61;1054;-86
2024/04/07 00:55:56;456939.00;1.52;787.72;127316.00;0.42;220.70;;;;;17.90;1.00;;;;;;2272250;61;1078;-86
2024/04/07 00:58:23;268799.00;0.90;464.28;71081.00;0.24;123.63;;;;;18.00;1.00;;;;;;2272047;61;1936;-85
2024/04/07 01:00:49;332850.00;1.11;574.38;102942.00;0.34;178.65;;;;;17.90;1.00;;;;;;2272236;61;1084;-87
2024/04/07 01:03:15;204804.00;0.68;354.19;81935.00;0.27;142.38;;;;;17.70;1.00;;;;;;2272230;61;1052;-86
2024/04/07 01:05:45;283580.00;0.95;489.69;84305.00;0.28;146.47;;;;;17.30;1.00;;;;;;2272263;61;1119;-86
2024/04/07 01:08:12;340285.00;1.13;587.16;84094.00;0.28;146.11;;;;;17.30;1.00;;;;;;2272220;61;1358;-87
2024/04/07 01:10:39;218834.00;0.73;378.34;83643.00;0.28;145.33;;;;;17.00;1.00;;;;;;2272258;61;1676;-85
2024/04/07 01:13:06;430589.00;1.44;742.40;130982.00;0.44;227.02;;;;;16.60;1.00;;;;;;2272938;61;1094;-86
2024/04/07 01:15:33;183462.00;0.61;317.45;81257.00;0.27;141.21;;;;;16.50;1.00;;;;;;2272797;61;1061;-86
2024/04/07 01:18:00;213415.00;0.71;369.01;88088.00;0.29;153.01;;;;;16.80;1.00;;;;;;2272909;61;1913;-87
2024/04/07 01:20:27;373748.00;1.25;644.68;157562.00;0.53;272.84;;;;;17.10;1.00;;;;;;2272941;61;1067;-86
2024/04/07 01:22:55;408376.00;1.36;704.20;114662.00;0.38;198.87;;;;;17.20;1.00;;;;;;2272912;61;1013;-85
2024/04/07 01:25:23;312580.00;1.04;539.54;86130.00;0.29;149.62;;;;;17.30;1.00;;;;;;2272443;61;1027;-86
2024/04/07 01:27:53;255124.00;0.85;440.76;82669.00;0.28;143.65;;;;;17.50;1.00;;;;;;2272915;61;1289;-86
2024/04/07 01:30:20;356287.00;1.19;614.67;106487.00;0.35;184.77;;;;;17.40;1.00;;;;;;2272966;61;1012;-86
2024/04/07 01:32:46;321790.00;1.07;555.37;72041.00;0.24;125.29;;;;;17.40;1.00;;;;;;2272892;61;1076;-85
2024/04/07 01:35:13;188451.00;0.63;326.04;70496.00;0.23;122.62;;;;;17.40;1.00;;;;;;2272808;61;971;-86
2024/04/07 01:37:39;279807.00;0.93;483.21;89560.00;0.30;155.55;;;;;17.40;1.00;;;;;;2272751;61;2004;-86
2024/04/07 01:40:08;116223856.00;387.41;63592048.00;78712.00;0.26;136.81;;;;;17.10;1.00;;;;;;2272867;61;1122;-86
2024/04/07 01:42:36;490603.00;1.64;845.65;194359.00;0.65;336.21;;;;;16.80;1.00;;;;;;2272825;61;1069;-86
2024/04/07 01:45:03;368434.00;1.23;635.55;76977.00;0.26;133.82;;;;;16.60;1.00;;;;;;2272834;61;1157;-86
2024/04/07 01:47:29;205209.00;0.68;354.89;84660.00;0.28;147.09;;;;;16.40;1.00;;;;;;2272837;61;1287;-87
2024/04/07 01:49:56;369209.00;1.23;636.88;118297.00;0.39;205.14;;;;;16.20;1.00;;;;;;2272788;61;1037;-86
2024/04/07 01:52:23;306771.00;1.02;529.56;82518.00;0.28;143.39;;;;;16.30;1.00;;;;;;2272790;61;1071;-86
2024/04/07 01:54:49;116513152.00;388.38;64068516.00;78528.00;0.26;136.49;;;;;16.60;1.00;;;;;;2272663;61;955;-86
2024/04/07 01:57:15;521539.00;1.74;898.92;91438.00;0.30;158.79;;;;;16.70;1.00;;;;;;2272690;61;2010;-87
2024/04/07 01:59:44;398172.00;1.33;686.66;135506.00;0.45;234.82;;;;;16.90;1.00;;;;;;2272791;61;1737;-86
2024/04/07 02:02:10;247798.00;0.83;428.16;60536.00;0.20;105.40;;;;;17.10;1.00;;;;;;2272758;61;2233;-86
2024/04/07 02:04:37;199850.00;0.67;345.67;79570.00;0.27;138.29;;;;;17.20;1.00;;;;;;2272769;61;1000;-86
2024/04/07 02:07:03;117717816.00;392.39;66078220.00;109516.00;0.37;189.99;;;;;17.10;1.00;;;;;;2272798;61;1362;-86
2024/04/07 02:09:30;278219.00;0.93;480.48;78382.00;0.26;136.24;;;;;17.00;1.00;;;;;;2272839;61;1021;-86
2024/04/07 02:11:57;216302.00;0.72;373.98;69895.00;0.23;121.58;;;;;17.00;1.00;;;;;;2272788;61;1102;-87
2024/04/07 02:14:24;239310.00;0.80;413.56;86367.00;0.29;150.03;;;;;17.00;1.00;;;;;;2272793;61;1072;-86
2024/04/07 02:16:51;321664.00;1.07;555.16;82890.00;0.28;144.03;;;;;17.10;1.00;;;;;;2272740;61;2004;-87
2024/04/07 02:19:18;308554.00;1.03;532.62;77867.00;0.26;135.35;;;;;17.20;1.00;;;;;;2272797;61;1058;-86
2024/04/07 02:21:44;392100.00;1.31;676.22;94672.00;0.32;164.37;;;;;17.40;1.00;;;;;;2272703;61;981;-85
2024/04/07 02:24:11;308549.00;1.03;532.62;77818.00;0.26;135.27;;;;;17.60;1.00;;;;;;2272640;61;1086;-86
2024/04/07 02:26:37;264931.00;0.88;457.63;92612.00;0.31;160.82;;;;;17.60;1.00;;;;;;2272675;61;1400;-87
2024/04/07 02:29:04;211857.00;0.71;366.33;86638.00;0.29;150.50;;;;;17.70;1.00;;;;;;2272797;61;1062;-85
2024/04/07 02:31:30;356793.00;1.19;615.54;91236.00;0.30;158.44;;;;;17.70;1.00;;;;;;2272681;61;1497;-86
2024/04/07 02:33:59;416095.00;1.39;717.48;132258.00;0.44;229.22;;;;;17.60;1.00;;;;;;2272704;61;941;-86
2024/04/07 02:36:24;352832.00;1.18;608.73;85328.00;0.28;148.24;;;;;17.50;1.00;;;;;;2272613;61;1297;-86
2024/04/07 02:38:52;253458.00;0.84;437.90;101051.00;0.34;175.39;;;;;17.40;1.00;;;;;;2272566;61;2035;-86
2024/04/07 02:41:18;307561.00;1.03;530.92;77586.00;0.26;134.87;;;;;17.50;1.00;;;;;;2272619;61;1225;-85
2024/04/07 02:43:45;116097120.00;386.99;63384056.00;77213.00;0.26;134.22;;;;;17.50;1.00;;;;;;2272707;61;1109;-86
2024/04/07 02:48:57;322477.00;1.07;556.56;89467.00;0.30;155.39;;;;;17.50;1.00;;;;;;2272772;61;703;-87
2024/04/07 02:51:24;0.00;0.00;0.62;0.00;0.00;0.62;;;;;17.40;1.00;;;;;;2272617;61;1030;-87
2024/04/07 02:53:51;20485.00;0.07;36.11;0.00;0.00;0.62;;;;;17.40;1.00;;;;;;2272680;61;1102;-87
2024/04/07 02:56:18;151596.00;0.51;262.56;13963.00;0.05;24.81;;;;;17.50;1.00;;;;;;2272668;61;1378;-86
2024/04/07 02:58:44;0.00;0.00;0.62;0.00;0.00;0.62;;;;;17.50;1.00;;;;;;2272540;61;2005;-86
2024/04/07 03:01:11;60292.00;0.20;104.98;0.00;0.00;0.62;;;;;17.40;1.00;;;;;;2272436;61;1737;-87
2024/04/07 03:03:37;90638.00;0.30;157.41;0.00;0.00;0.62;;;;;17.10;1.00;;;;;;2272485;61;1048;-86
2024/04/07 03:06:08;19742.00;0.07;34.82;0.00;0.00;0.62;;;;;16.80;1.00;;;;;;2272528;61;1015;-87
2024/04/07 03:08:34;336973.00;1.12;581.47;112898.00;0.38;195.83;;;;;16.40;1.00;;;;;;2272584;61;1155;-87
2024/04/07 03:11:03;63371.00;0.21;110.30;0.00;0.00;0.62;;;;;16.30;1.00;;;;;;2272559;61;1093;-87
2024/04/07 03:13:29;175751.00;0.59;304.17;82966.00;0.28;144.16;;;;;16.20;1.00;;;;;;2272551;61;989;-86
2024/04/07 03:15:56;182090.00;0.61;315.09;83935.00;0.28;145.83;;;;;16.20;1.00;;;;;;2272594;61;1097;-87
2024/04/07 03:18:22;205107.00;0.68;354.71;79425.00;0.26;138.04;;;;;16.20;1.00;;;;;;2272517;61;1992;-86
2024/04/07 03:20:49;305586.00;1.02;527.52;78984.00;0.26;137.28;;;;;16.00;1.00;;;;;;2272527;61;1122;-87
2024/04/07 03:23:16;0.00;0.00;0.62;0.00;0.00;0.62;;;;;16.30;1.00;;;;;;2272435;61;2352;-87
2024/04/07 03:25:43;199271.00;0.66;344.67;85853.00;0.29;149.15;;;;;16.50;1.00;;;;;;2272514;61;1109;-86
2024/04/07 03:28:09;53153.00;0.18;92.64;0.00;0.00;0.62;;;;;16.80;1.00;;;;;;2272593;61;1266;-86
2024/04/07 03:30:37;67324.00;0.22;117.14;487.00;0.00;1.46;;;;;16.70;1.00;;;;;;2272554;61;1085;-86
2024/04/07 03:33:03;117905136.00;393.02;66394440.00;117643992.00;392.15;65953856.00;;;;;16.80;1.00;;;;;;2272538;61;1689;-87
2024/04/07 03:35:30;240642.00;0.80;415.86;80617.00;0.27;140.10;;;;;16.90;1.00;;;;;;2272610;61;1004;-86
2024/04/07 03:37:57;182632.00;0.61;316.02;78919.00;0.26;137.17;;;;;16.90;1.00;;;;;;2272476;61;2006;-86
2024/04/07 03:40:26;209576.00;0.70;362.41;79426.00;0.26;138.05;;;;;16.90;1.00;;;;;;2272566;61;1107;-86
2024/04/07 03:42:53;328419.00;1.09;566.77;104094.00;0.35;180.64;;;;;16.90;1.00;;;;;;2272490;61;1122;-88
2024/04/07 03:45:20;262310.00;0.87;453.12;92658.00;0.31;160.90;;;;;17.10;1.00;;;;;;2272609;61;894;-86
2024/04/07 03:47:48;165302.00;0.55;286.17;74875.00;0.25;130.18;;;;;17.20;1.00;;;;;;2272439;61;1368;-86
2024/04/07 03:50:15;356147.00;1.19;614.43;103482.00;0.34;179.58;;;;;17.10;1.00;;;;;;2272404;61;2225;-87
2024/04/07 03:52:41;205709.00;0.69;355.75;79644.00;0.27;138.42;;;;;17.10;1.00;;;;;;2272452;61;1039;-87
2024/04/07 03:55:08;44462.00;0.15;77.61;0.00;0.00;0.62;;;;;17.00;1.00;;;;;;2272411;61;970;-86
2024/04/07 03:57:35;204496.00;0.68;353.66;83859.00;0.28;145.70;;;;;17.00;1.00;;;;;;2272403;61;2013;-87
2024/04/07 04:00:04;179645.00;0.60;310.88;80241.00;0.27;139.45;;;;;16.80;1.00;;;;;;2272285;61;1068;-87
2024/04/07 04:02:30;167811.00;0.56;290.50;71225.00;0.24;123.88;;;;;16.40;1.00;;;;;;2272291;61;1643;-87
2024/04/07 04:04:58;177868.00;0.59;307.82;83854.00;0.28;145.69;;;;;16.20;1.00;;;;;;2272501;61;1063;-88
2024/04/07 04:07:26;564904.00;1.88;973.66;189326.00;0.63;327.55;;;;;16.10;1.00;;;;;;2272411;61;1317;-86
2024/04/07 04:09:54;182994.00;0.61;316.65;85790.00;0.29;149.04;;;;;16.50;1.00;;;;;;2272559;61;1152;-86
2024/04/07 04:12:20;263492.00;0.88;455.15;87261.00;0.29;151.58;;;;;16.90;1.00;;;;;;2272510;61;1105;-86
2024/04/07 04:14:48;228042.00;0.76;394.18;87408.00;0.29;151.83;;;;;17.10;1.00;;;;;;2272483;61;1077;-87
2024/04/07 04:17:15;226067.00;0.75;390.78;81277.00;0.27;141.24;;;;;17.30;1.00;;;;;;2272408;61;2047;-87
2024/04/07 04:19:42;311867.00;1.04;538.32;80096.00;0.27;139.20;;;;;17.40;1.00;;;;;;2272488;61;1061;-86
2024/04/07 04:22:08;168275.00;0.56;291.30;79946.00;0.27;138.94;;;;;17.50;1.00;;;;;;2272376;61;1119;-87
2024/04/07 04:24:35;307110.00;1.02;530.14;84313.00;0.28;146.49;;;;;17.60;1.00;;;;;;2272471;61;997;-87
2024/04/07 04:27:02;287511.00;0.96;496.45;100046.00;0.33;173.65;;;;;17.80;1.00;;;;;;2272417;61;1298;-86
2024/04/07 04:29:29;294284.00;0.98;508.09;94006.00;0.31;163.22;;;;;17.80;1.00;;;;;;2272397;61;1057;-86
2024/04/07 04:31:56;205827.00;0.69;355.95;86153.00;0.29;149.66;;;;;17.90;1.00;;;;;;2272393;61;1023;-87
2024/04/07 04:34:23;312986.00;1.04;540.24;88317.00;0.29;153.40;;;;;17.80;1.00;;;;;;2272343;61;1004;-85
2024/04/07 04:36:50;392991.00;1.31;677.76;152531.00;0.51;264.17;;;;;17.80;1.00;;;;;;2272456;61;1297;-86
2024/04/07 04:39:17;196401.00;0.65;339.73;81359.00;0.27;141.38;;;;;17.80;1.00;;;;;;2272319;61;2013;-85
2024/04/07 04:41:45;169699.00;0.57;293.75;77739.00;0.26;135.13;;;;;17.90;1.00;;;;;;2272398;61;1047;-86
2024/04/07 04:44:12;186975.00;0.62;323.50;79652.00;0.27;138.44;;;;;17.70;1.00;;;;;;2272427;61;1220;-86
2024/04/07 04:46:40;229447.00;0.76;396.60;82340.00;0.27;143.08;;;;;17.70;1.00;;;;;;2272247;61;1368;-85
2024/04/07 04:49:07;198377.00;0.66;343.13;75365.00;0.25;131.03;;;;;17.80;1.00;;;;;;2272363;61;1103;-85
2024/04/07 04:51:34;336359.00;1.12;580.42;112592.00;0.38;195.30;;;;;17.90;1.00;;;;;;2272316;61;1126;-86
2024/04/07 04:54:00;186309.00;0.62;322.35;84255.00;0.28;146.39;;;;;17.60;1.00;;;;;;2272347;61;1119;-85
2024/04/07 04:56:27;225261.00;0.75;389.40;85864.00;0.29;149.17;;;;;17.40;1.00;;;;;;2272338;61;1294;-87
2024/04/07 04:58:56;206459.00;0.69;357.04;76443.00;0.25;132.89;;;;;17.10;1.00;;;;;;2272269;61;1910;-87
2024/04/07 05:01:23;252845.00;0.84;436.84;84530.00;0.28;146.86;;;;;17.00;1.00;;;;;;2272227;61;951;-86
2024/04/07 05:03:50;207877.00;0.69;359.48;72392.00;0.24;125.89;;;;;16.80;1.00;;;;;;2272286;61;1042;-86
2024/04/07 05:06:19;339226.00;1.13;585.34;80824.00;0.27;140.46;;;;;16.60;1.00;;;;;;2272347;61;1348;-86
2024/04/07 05:08:45;382780.00;1.28;660.20;85176.00;0.28;147.98;;;;;16.50;1.00;;;;;;2272304;61;1201;-85
2024/04/07 05:11:12;311466.00;1.04;537.63;87868.00;0.29;152.63;;;;;16.70;1.00;;;;;;2272401;61;1026;-87
2024/04/07 05:13:39;371026.00;1.24;640.00;84096.00;0.28;146.11;;;;;16.70;1.00;;;;;;2272342;61;1061;-87
2024/04/07 05:16:06;356321.00;1.19;614.73;83126.00;0.28;144.44;;;;;16.90;1.00;;;;;;2272331;61;1086;-87
2024/04/07 05:18:33;254854.00;0.85;440.30;80278.00;0.27;139.52;;;;;16.80;1.00;;;;;;2272318;61;1923;-85
2024/04/07 05:21:03;347073.00;1.16;598.83;83276.00;0.28;144.70;;;;;16.40;1.00;;;;;;2272269;61;1703;-86
2024/04/07 05:23:30;304099.00;1.01;524.97;61530.00;0.21;107.12;;;;;16.30;1.00;;;;;;2272299;61;821;-86
2024/04/07 05:26:07;258029.00;0.86;445.76;83498.00;0.28;145.08;;;;;16.60;1.00;;;;;;2272242;61;983;-86
2024/04/07 05:28:33;579495.00;1.93;998.83;102227.00;0.34;177.42;;;;;16.70;1.00;;;;;;2272310;61;1114;-85
2024/04/07 05:31:03;582514.00;1.94;1004.04;84150.00;0.28;146.21;;;;;16.70;1.00;;;;;;2272279;61;1106;-85
2024/04/07 05:33:30;495870.00;1.65;854.71;78849.00;0.26;137.05;;;;;16.60;1.00;;;;;;2272253;61;1167;-87
2024/04/07 05:35:56;468189.00;1.56;807.07;86159.00;0.29;149.67;;;;;16.50;1.00;;;;;;2272286;61;1275;-87
2024/04/07 05:38:22;685742.00;2.29;1182.52;128197.00;0.43;222.22;;;;;16.50;1.00;;;;;;2272110;61;1992;-86
2024/04/07 05:40:55;651948.00;2.17;1124.01;115647.00;0.39;200.57;;;;;16.70;1.00;;;;;;2272348;61;1087;-85
2024/04/07 05:43:21;660264.00;2.20;1138.40;88675.00;0.30;154.02;;;;;16.80;1.00;;;;;;2272309;61;1134;-85
2024/04/07 05:45:47;710235.00;2.37;1224.99;100013.00;0.33;173.59;;;;;17.00;1.00;;;;;;2272258;61;1070;-84
2024/04/07 05:48:13;538898.00;1.80;928.82;80587.00;0.27;140.05;;;;;17.20;1.00;;;;;;2272213;61;1381;-85
2024/04/07 05:50:40;498711.00;1.66;859.60;76329.00;0.25;132.70;;;;;17.30;1.00;;;;;;2272207;61;1019;-86
2024/04/07 05:53:06;351734.00;1.17;606.84;84947.00;0.28;147.58;;;;;17.20;1.00;;;;;;2272129;61;1060;-85
2024/04/07 05:55:34;402339.00;1.34;693.83;72993.00;0.24;126.93;;;;;17.40;1.00;;;;;;2271841;61;1612;-85
2024/04/07 05:58:02;432342.00;1.44;745.41;99213.00;0.33;172.21;;;;;16.80;1.00;;;;;;2272712;61;2000;-87
2024/04/07 06:00:30;322332.00;1.07;556.31;73384.00;0.24;127.61;;;;;16.70;1.00;;;;;;2272891;61;1118;-85
2024/04/07 06:02:56;240558.00;0.80;415.71;81092.00;0.27;140.92;;;;;16.90;1.00;;;;;;2272887;61;1039;-84
2024/04/07 06:05:23;239654.00;0.80;414.16;80148.00;0.27;139.29;;;;;17.30;1.00;;;;;;2272826;61;1531;-85
2024/04/07 06:07:49;288659.00;0.96;498.42;68393.00;0.23;118.98;;;;;17.60;1.00;;;;;;2272835;61;1412;-85
2024/04/07 06:10:16;419971.00;1.40;724.14;93230.00;0.31;161.88;;;;;17.80;1.00;;;;;;2272822;61;1009;-86
2024/04/07 06:12:42;393309.00;1.31;678.30;118508.00;0.40;205.51;;;;;17.60;1.00;;;;;;2272901;61;1035;-86
2024/04/07 06:15:11;340937.00;1.14;588.28;81008.00;0.27;140.78;;;;;17.60;1.00;;;;;;2272888;61;994;-85
2024/04/07 06:17:36;229098.00;0.76;396.00;77956.00;0.26;135.51;;;;;17.90;1.00;;;;;;2272795;61;2012;-86
2024/04/07 06:20:04;252194.00;0.84;435.72;84886.00;0.28;147.48;;;;;17.90;1.00;;;;;;2272855;61;1030;-86
2024/04/07 06:22:30;359020.00;1.20;619.36;88583.00;0.30;153.86;;;;;18.30;1.00;;;;;;2272264;61;906;-87
2024/04/07 06:24:57;377002.00;1.26;650.27;74841.00;0.25;130.12;;;;;18.20;1.00;;;;;;2272529;61;1041;-86
2024/04/07 06:27:23;324291.00;1.08;559.67;78412.00;0.26;136.29;;;;;17.80;1.00;;;;;;2272612;61;1354;-87
2024/04/07 06:29:50;641050.00;2.14;1105.16;120185.00;0.40;208.40;;;;;17.50;1.00;;;;;;2272788;61;1001;-87
2024/04/07 06:32:17;257456.00;0.86;444.77;73769.00;0.25;128.27;;;;;18.10;1.00;;;;;;2272868;61;1031;-87
2024/04/07 06:34:44;529873.00;1.77;913.27;104426.00;0.35;181.21;;;;;18.30;1.00;;;;;;2272893;61;984;-86
2024/04/07 06:37:10;101243.00;0.34;175.72;35357.00;0.12;61.85;;;;;18.70;1.00;;;;;;2272792;61;2160;-87
2024/04/07 06:39:38;140776.00;0.47;243.91;0.00;0.00;0.62;;;;;19.20;1.00;;;;;;2272852;61;1930;-87
2024/04/07 06:42:04;70807.00;0.24;123.15;0.00;0.00;0.62;;;;;19.60;1.00;;;;;;2272813;61;1113;-86
2024/04/07 06:44:31;27476.00;0.09;48.21;0.00;0.00;0.62;;;;;19.40;1.00;;;;;;2272731;61;1099;-86
2024/04/07 06:46:57;0.00;0.00;0.62;0.00;0.00;0.62;;;;;18.60;1.00;;;;;;2272730;61;1340;-87
2024/04/07 06:49:25;136423.00;0.45;236.40;0.00;0.00;0.62;;;;;18.90;1.00;;;;;;2272746;61;886;-87
2024/04/07 06:51:51;38138.00;0.13;66.67;0.00;0.00;0.62;;;;;18.40;1.00;;;;;;2272665;61;1130;-87
2024/04/07 06:54:18;172388.00;0.57;298.38;0.00;0.00;0.62;;;;;18.40;1.00;;;;;;2272521;61;1945;-86
2024/04/07 06:56:44;0.00;0.00;0.62;0.00;0.00;0.62;;;;;18.90;1.00;;;;;;2272678;61;1345;-86
2024/04/07 06:59:11;60265.00;0.20;104.93;0.00;0.00;0.62;;;;;19.20;1.00;;;;;;2272557;61;2286;-85
2024/04/07 07:01:36;33009.00;0.11;57.79;0.00;0.00;0.62;;;;;19.50;1.00;;;;;;2272665;61;1127;-87
2024/04/07 07:04:04;33486.00;0.11;58.62;0.00;0.00;0.62;;;;;19.60;1.00;;;;;;2272501;61;1020;-85
2024/04/07 07:06:31;80274.00;0.27;139.51;0.00;0.00;0.62;;;;;19.40;1.00;;;;;;2272525;61;1292;-86
2024/04/07 07:08:58;76800.00;0.26;133.51;0.00;0.00;0.62;;;;;19.20;1.00;;;;;;2272257;61;1114;-84
2024/04/07 07:11:24;0.00;0.00;0.62;0.00;0.00;0.62;;;;;19.10;1.00;;;;;;2272539;61;1068;-86
2024/04/07 07:13:54;70578.00;0.24;122.76;0.00;0.00;0.62;;;;;19.60;1.00;;;;;;2272338;61;1064;-84
2024/04/07 07:16:20;112014.00;0.37;194.31;32116.00;0.11;56.25;;;;;20.10;1.00;;;;;;2272546;61;1342;-86
2024/04/07 07:18:47;30751.00;0.10;53.88;0.00;0.00;0.62;;;;;20.50;1.00;;;;;;2272571;61;2018;-86
2024/04/07 07:21:13;24990.00;0.08;43.91;0.00;0.00;0.62;;;;;20.80;1.00;;;;;;2272520;61;1130;-86
2024/04/07 07:23:41;215021.00;0.72;371.78;16703.00;0.06;29.56;;;;;20.50;1.00;;;;;;2272600;61;1543;-87
2024/04/07 07:26:07;18555.00;0.06;32.77;0.00;0.00;0.62;;;;;20.70;1.00;;;;;;2272570;61;1132;-86
2024/04/07 07:28:34;346992.00;1.16;598.69;54575.00;0.18;95.10;;;;;21.00;1.00;;;;;;2272593;61;1042;-84
2024/04/07 07:30:59;50392.00;0.17;87.86;0.00;0.00;0.62;;;;;21.00;1.00;;;;;;2272579;61;1137;-86
2024/04/07 07:33:26;289186.00;0.96;499.33;92504.00;0.31;160.63;;;;;21.20;1.00;;;;;;2272543;61;1061;-86
2024/04/07 07:35:52;126493.00;0.42;219.28;0.00;0.00;0.62;;;;;21.60;1.00;;;;;;2272590;61;1098;-86
2024/04/07 07:38:19;214593.00;0.72;371.04;0.00;0.00;0.62;;;;;21.80;1.00;;;;;;2272340;61;2014;-86
2024/04/07 07:40:47;62341.00;0.21;108.52;0.00;0.00;0.62;;;;;22.30;1.00;;;;;;2272368;61;1053;-86
2024/04/07 07:43:13;395513.00;1.32;682.09;31144.00;0.10;54.56;;;;;22.40;1.00;;;;;;2269580;61;2093;-84
2024/04/07 07:45:40;0.00;0.00;0.62;0.00;0.00;0.62;;;;;22.50;1.00;;;;;;2268312;61;1133;-85
2024/04/07 07:48:07;67368.00;0.22;117.21;0.00;0.00;0.62;;;;;22.90;1.00;;;;;;2268087;61;1379;-85
2024/04/07 07:50:33;256828.00;0.86;443.69;0.00;0.00;0.62;;;;;22.90;1.00;;;;;;2267715;61;1102;-83
2024/04/07 07:53:00;103679.00;0.35;179.92;0.00;0.00;0.62;;;;;23.30;1.00;;;;;;2288154;40;3583;-87
2024/04/07 07:55:26;339690.00;1.13;586.14;22987.00;0.08;40.44;;;;;23.50;1.00;;;;;;2269134;61;443;-89
2024/04/07 07:57:54;153932.00;0.51;266.58;0.00;0.00;0.62;;;;;24.10;1.00;;;;;;2273556;40;3619;-88
2024/04/07 08:05:17;666091.00;2.22;1148.48;0.00;0.00;0.62;;;;;24.60;1.00;;;;;;1969834;56;3564;-88
2024/04/07 08:07:42;206577.00;0.69;357.24;0.00;0.00;0.62;;;;;25.00;1.00;;;;;;2272141;61;1723;-88
2024/04/07 08:12:44;461156.00;1.54;794.97;0.00;0.00;0.62;;;;;25.10;1.00;;;;;;2274240;56;3694;-87
2024/04/07 08:15:14;203297.00;0.68;351.60;0.00;0.00;0.62;;;;;25.10;1.00;;;;;;2268082;61;1018;-88
2024/04/07 08:17:41;193189.00;0.64;334.20;0.00;0.00;0.62;;;;;25.10;1.00;;;;;;2268407;61;1386;-88
2024/04/07 08:20:08;299538.00;1.00;517.13;23612.00;0.08;41.52;;;;;25.10;1.00;;;;;;2270138;56;3678;-88
2024/04/07 08:22:35;127761.00;0.43;221.47;0.00;0.00;0.62;;;;;25.50;1.00;;;;;;2268258;61;1119;-89
2024/04/07 08:25:05;493545.00;1.65;850.71;64907.00;0.22;112.96;;;;;25.80;1.00;;;;;;2315624;41;3850;-87
2024/04/07 08:27:33;467633.00;1.56;806.12;47576.00;0.16;82.99;;;;;26.00;1.00;;;;;;2275759;56;3756;-88
2024/04/07 08:30:03;169000.00;0.56;292.54;0.00;0.00;0.62;;;;;26.30;1.00;;;;;;2293200;56;3761;-88
2024/04/07 08:32:30;145371.00;0.48;251.83;0.00;0.00;0.62;;;;;26.10;1.00;;;;;;2275652;56;3797;-87
2024/04/07 08:34:57;223400.00;0.74;386.19;0.00;0.00;0.62;;;;;25.70;1.00;;;;;;2269051;61;959;-88
2024/04/07 08:37:25;157839.00;0.53;273.32;0.00;0.00;0.62;;;;;25.90;1.00;;;;;;2269085;61;1180;-88
2024/04/07 08:39:52;60367.00;0.20;105.11;0.00;0.00;0.62;;;;;26.40;1.00;;;;;;2269052;61;2007;-88
2024/04/07 08:42:20;126396.00;0.42;219.11;0.00;0.00;0.62;;;;;26.30;1.00;;;;;;2269076;61;769;-88
2024/04/07 08:44:48;386541.00;1.29;666.67;10211.00;0.03;18.31;;;;;26.10;1.00;;;;;;2269035;61;1712;-86
2024/04/07 08:47:17;284601.00;0.95;491.45;98704.00;0.33;171.33;;;;;25.70;1.00;;;;;;2285960;56;3841;-87
2024/04/07 08:49:48;149900.00;0.50;259.64;12421.00;0.04;22.14;;;;;25.80;1.00;;;;;;2296780;56;3762;-87
2024/04/07 08:52:16;209588.00;0.70;362.43;41235.00;0.14;72.03;;;;;25.90;1.00;;;;;;2269938;56;3745;-88
2024/04/07 08:57:32;981974.00;3.27;1700.57;0.00;0.00;0.62;;;;;26.20;1.00;;;;;;2268438;40;3571;-88
2024/04/07 09:00:00;410788.00;1.37;708.35;38154.00;0.13;66.69;;;;;25.60;1.00;;;;;;2303384;56;3802;-88
2024/04/07 09:02:31;529317.00;1.76;912.32;66352.00;0.22;115.46;;;;;25.50;1.00;;;;;;2319393;56;3819;-87
2024/04/07 09:04:59;326410.00;1.09;563.32;0.00;0.00;0.62;;;;;25.70;1.00;;;;;;2381151;40;3728;-89
2024/04/07 09:07:26;315544.00;1.05;544.64;0.00;0.00;0.62;;;;;25.80;1.00;;;;;;2289418;56;3749;-87
2024/04/07 09:09:52;456717.00;1.52;787.34;8867.00;0.03;15.99;;;;;25.90;1.00;;;;;;2311251;41;3791;-89
2024/04/07 09:12:19;1014569.00;3.38;1758.29;119976.00;0.40;208.04;;;;;26.00;1.00;;;;;;2267813;61;1675;-88
2024/04/07 09:17:18;527824.00;1.76;909.74;0.00;0.00;0.62;;;;;26.20;1.00;;;;;;2311289;41;3494;-87
2024/04/07 09:19:44;672804.00;2.24;1160.11;83368.00;0.28;144.85;;;;;26.20;1.00;;;;;;2333030;41;3789;-87
2024/04/07 09:29:43;623721.00;2.08;1075.20;0.00;0.00;0.62;;;;;27.10;1.00;;;;;;2321773;41;3491;-88
2024/04/07 09:32:09;659585.00;2.20;1137.22;56350.00;0.19;98.17;;;;;27.30;1.00;;;;;;2276417;56;3774;-89
2024/04/07 09:42:52;1251896.00;4.17;2184.33;100275.00;0.33;174.05;;;;;27.40;1.00;;;;;;2273396;56;3686;-88
2024/04/07 09:45:23;1055241.00;3.52;1830.56;84243.00;0.28;146.37;;;;;26.90;1.00;;;;;;2273565;61;1684;-89
2024/04/07 09:47:58;934599.00;3.12;1616.97;37058.00;0.12;64.80;;;;;26.60;1.00;;;;;;2275751;56;3723;-88
2024/04/07 09:50:33;408927.00;1.36;705.15;34317.00;0.11;60.05;;;;;26.40;1.00;;;;;;2312808;56;3840;-88
2024/04/07 10:03:14;1133276.00;3.78;1970.04;0.00;0.00;0.62;;;;;27.90;1.00;;;;;;2284179;56;3721;-90
2024/04/07 10:05:40;210868.00;0.70;364.63;0.00;0.00;0.62;;;;;27.10;1.00;;;;;;2272805;56;3774;-88
2024/04/07 10:08:09;282242.00;0.94;487.39;0.00;0.00;0.62;;;;;26.60;1.00;;;;;;2278701;56;3844;-88
2024/04/07 10:13:11;927560.00;3.09;1604.58;0.00;0.00;0.62;;;;;27.30;1.00;;;;;;2303599;56;3673;-88
2024/04/07 10:15:37;309429.00;1.03;534.13;0.00;0.00;0.62;;;;;27.40;1.00;;;;;;2430800;56;3812;-87
2024/04/07 10:25:37;766842.00;2.56;1323.36;34564.00;0.12;60.48;;;;;27.50;1.00;;;;;;2324623;40;3513;-89